Time;durP1;ratioP1;P1;durP2;ratioP2;P2;SDS_P1;SDS_P2;PMS_P1;PMS_P2;Temp;Humidity;BMP_temperature;BMP_pressure;BME280_temperature;BME280_humidity;BME280_pressure;Samples;Min_cycle;Max_cycle;Signal;HPM_P1;HPM_P2
2023/03/07 00:02:10;;;;;;;9.55;3.65;;;;;;;6.57;100.00;99918.38;4970551;28;20030;-74
2023/03/07 00:04:35;;;;;;;12.40;4.22;;;;;;;6.63;100.00;99914.72;4971692;28;20062;-75
2023/03/07 00:07:01;;;;;;;11.95;4.68;;;;;;;6.43;100.00;99917.97;4968909;28;20031;-75
2023/03/07 00:09:26;;;;;;;9.73;3.95;;;;;;;6.51;100.00;99931.69;4970405;28;20479;-76
2023/03/07 00:11:51;;;;;;;9.32;4.00;;;;;;;6.59;100.00;99925.34;4969849;28;20047;-76
2023/03/07 00:14:17;;;;;;;15.55;4.68;;;;;;;6.62;100.00;99926.06;4969181;28;20042;-70
2023/03/07 00:16:43;;;;;;;14.88;4.70;;;;;;;6.61;100.00;99929.63;4951507;28;20375;-74
2023/03/07 00:19:08;;;;;;;10.18;4.85;;;;;;;6.63;100.00;99929.56;4968487;28;20436;-69
2023/03/07 00:21:33;;;;;;;14.85;4.20;;;;;;;6.63;100.00;99929.56;4968205;28;20055;-78
2023/03/07 00:23:59;;;;;;;5.65;4.13;;;;;;;6.63;100.00;99925.19;4968897;28;20085;-74
2023/03/07 00:26:26;;;;;;;11.45;4.05;;;;;;;6.65;100.00;99928.59;4965778;28;20527;-75
2023/03/07 00:28:52;;;;;;;9.95;4.47;;;;;;;6.65;100.00;99930.38;4968323;28;20503;-74
2023/03/07 00:31:18;;;;;;;18.17;4.88;;;;;;;6.71;100.00;99917.06;4966773;28;20030;-74
2023/03/07 00:33:44;;;;;;;12.13;4.70;;;;;;;6.74;100.00;99919.59;4966778;28;20035;-77
2023/03/07 00:36:27;;;;;;;12.95;4.53;;;;;;;6.67;100.00;99920.69;4967604;28;20443;-74
2023/03/07 00:38:53;;;;;;;14.73;3.97;;;;;;;6.79;100.00;99920.31;4968078;28;20027;-75
2023/03/07 00:41:26;;;;;;;14.77;4.00;;;;;;;6.68;100.00;99910.19;4968525;28;20045;-71
2023/03/07 00:43:52;;;;;;;12.55;4.18;;;;;;;6.74;100.00;99916.13;4967635;28;20027;-78
2023/03/07 00:46:19;;;;;;;9.95;3.33;;;;;;;6.76;100.00;99909.94;4968025;28;20559;-77
2023/03/07 00:48:45;;;;;;;9.55;3.85;;;;;;;6.75;100.00;99910.84;4967534;28;20027;-73
2023/03/07 00:51:12;;;;;;;8.65;4.30;;;;;;;6.60;100.00;99921.81;4966037;28;20030;-73
2023/03/07 00:53:38;;;;;;;15.75;4.25;;;;;;;6.65;100.00;99898.97;4966085;28;20030;-76
2023/03/07 00:56:06;;;;;;;11.15;3.88;;;;;;;6.76;100.00;99901.22;4967486;28;20035;-73
2023/03/07 00:58:34;;;;;;;8.55;3.72;;;;;;;6.65;100.00;99898.97;4966246;28;20663;-76
2023/03/07 01:01:00;;;;;;;16.63;4.15;;;;;;;6.57;100.00;99901.81;4967434;28;20031;-70
2023/03/07 01:03:26;;;;;;;12.68;3.88;;;;;;;6.66;100.00;99898.06;4967063;28;20037;-75
2023/03/07 01:05:52;;;;;;;12.93;3.40;;;;;;;6.77;100.00;99898.53;4965898;28;20479;-74
2023/03/07 01:08:18;;;;;;;12.32;3.45;;;;;;;6.75;100.00;99896.88;4950062;28;20479;-75
2023/03/07 01:10:44;;;;;;;9.85;3.13;;;;;;;6.76;100.00;99890.72;4966425;28;20023;-71
2023/03/07 01:13:10;;;;;;;14.75;2.83;;;;;;;6.61;100.00;99894.72;4979705;28;20162;-75
2023/03/07 01:15:36;;;;;;;6.97;2.10;;;;;;;6.51;100.00;99902.88;5049357;28;20485;-74
2023/03/07 01:18:02;;;;;;;14.98;2.17;;;;;;;6.42;100.00;99896.16;5003822;28;20123;-67
2023/03/07 01:20:33;;;;;;;12.13;2.13;;;;;;;6.39;100.00;99892.81;4947513;28;20027;-75
2023/03/07 01:22:58;;;;;;;18.65;2.10;;;;;;;6.41;100.00;99891.00;4947932;28;20062;-75
2023/03/07 01:25:24;;;;;;;12.45;2.38;;;;;;;6.31;100.00;99891.28;4948172;28;20046;-75
2023/03/07 01:27:54;;;;;;;7.88;2.15;;;;;;;6.38;100.00;99888.47;4948341;28;20433;-70
2023/03/07 01:30:22;;;;;;;11.18;2.28;;;;;;;6.32;100.00;99882.53;4947320;28;20227;-73
2023/03/07 01:32:55;;;;;;;8.75;2.10;;;;;;;6.27;100.00;99883.56;4948117;28;20027;-74
2023/03/07 01:35:20;;;;;;;11.57;2.22;;;;;;;6.19;100.00;99878.56;4946425;28;20038;-74
2023/03/07 01:37:48;;;;;;;10.55;2.22;;;;;;;6.18;100.00;99876.88;4947250;28;20031;-72
2023/03/07 01:40:14;;;;;;;10.77;2.20;;;;;;;6.02;100.00;99886.94;4947701;28;20073;-73
2023/03/07 01:42:40;;;;;;;9.75;1.90;;;;;;;6.06;100.00;99873.72;4947086;28;20035;-72
2023/03/07 01:45:10;;;;;;;13.07;2.53;;;;;;;6.13;100.00;99877.00;4948074;29;20106;-73
2023/03/07 01:47:36;;;;;;;11.43;2.13;;;;;;;6.19;100.00;99875.97;4947030;29;20034;-71
2023/03/07 01:50:04;;;;;;;9.30;1.85;;;;;;;6.12;100.00;99867.47;4946760;29;20098;-72
2023/03/07 01:52:38;;;;;;;23.65;2.08;;;;;;;6.18;100.00;99866.41;4928744;28;20400;-74
2023/03/07 01:55:11;;;;;;;13.82;2.33;;;;;;;6.20;100.00;99861.97;4927556;29;20042;-73
2023/03/07 01:57:37;;;;;;;4.05;1.65;;;;;;;6.26;100.00;99868.78;4928325;29;20046;-72
2023/03/07 02:00:08;;;;;;;13.25;1.92;;;;;;;6.26;100.00;99867.00;4929205;29;20082;-72
2023/03/07 02:02:36;;;;;;;13.30;2.90;;;;;;;6.37;100.00;99868.44;4927451;29;20031;-70
2023/03/07 02:05:24;;;;;;;9.75;2.05;;;;;;;6.28;100.00;99857.38;5077236;22;20061;-63
2023/03/07 02:07:50;;;;;;;11.63;1.77;;;;;;;6.31;100.00;99859.03;5007726;28;20031;-61
2023/03/07 02:10:18;;;;;;;11.10;2.10;;;;;;;6.36;100.00;99845.78;5007843;28;20109;-63
2023/03/07 02:12:43;;;;;;;7.47;1.60;;;;;;;6.37;100.00;99855.34;5008423;28;20096;-62
2023/03/07 02:15:10;;;;;;;13.65;2.30;;;;;;;6.42;100.00;99848.22;5009338;28;20417;-63
2023/03/07 02:17:35;;;;;;;12.18;1.90;;;;;;;6.41;100.00;99847.34;5022677;28;20053;-63
2023/03/07 02:20:39;;;;;;;7.78;2.28;;;;;;;6.40;100.00;99839.56;5026955;28;20118;-63
2023/03/07 02:23:07;;;;;;;10.15;1.77;;;;;;;6.37;100.00;99835.28;5027049;28;20061;-63
2023/03/07 02:25:45;;;;;;;13.20;2.40;;;;;;;6.38;100.00;99830.91;5028274;28;20029;-64
2023/03/07 02:28:13;;;;;;;8.80;2.30;;;;;;;6.42;100.00;99837.75;5010607;28;20063;-63
2023/03/07 02:30:52;;;;;;;15.07;2.30;;;;;;;6.31;100.00;99831.09;5009921;28;20026;-66
2023/03/07 02:33:17;;;;;;;6.95;1.55;;;;;;;6.35;100.00;99823.16;5026922;28;20033;-63
2023/03/07 02:35:43;;;;;;;12.25;2.58;;;;;;;6.36;100.00;99825.72;5027054;28;20022;-62
2023/03/07 02:38:09;;;;;;;11.02;2.10;;;;;;;6.32;100.00;99824.09;5028335;28;20465;-63
2023/03/07 02:40:34;;;;;;;21.73;2.53;;;;;;;6.24;100.00;99824.38;5028927;28;20029;-61
2023/03/07 02:43:04;;;;;;;8.68;2.13;;;;;;;6.29;100.00;99824.22;5009577;28;20029;-63
2023/03/07 02:45:30;;;;;;;10.88;2.22;;;;;;;6.28;100.00;99825.09;5027990;28;20488;-61
2023/03/07 02:47:55;;;;;;;11.98;3.17;;;;;;;6.36;100.00;99823.13;5026981;28;20025;-62
2023/03/07 02:50:20;;;;;;;12.88;2.55;;;;;;;6.35;100.00;99820.53;5027058;28;20037;-61
2023/03/07 02:52:46;;;;;;;10.68;2.75;;;;;;;6.37;100.00;99818.72;5011686;28;20045;-61
2023/03/07 02:55:11;;;;;;;9.52;2.45;;;;;;;6.32;100.00;99817.13;5009471;28;20032;-63
2023/03/07 02:57:37;;;;;;;12.55;2.95;;;;;;;6.32;100.00;99811.88;5026602;28;20026;-62
2023/03/07 03:00:06;;;;;;;16.73;2.92;;;;;;;6.26;100.00;99812.06;5026282;28;20028;-64
2023/03/07 03:02:31;;;;;;;9.50;2.83;;;;;;;6.30;100.00;99808.44;5027628;28;20021;-61
2023/03/07 03:04:56;;;;;;;15.25;2.90;;;;;;;6.25;100.00;99809.50;5026992;28;20534;-61
2023/03/07 03:07:22;;;;;;;12.27;2.58;;;;;;;6.25;100.00;99810.38;5028063;28;20026;-60
2023/03/07 03:09:47;;;;;;;11.98;4.68;;;;;;;6.28;100.00;99809.41;5027467;28;20358;-61
2023/03/07 03:12:12;;;;;;;8.65;2.53;;;;;;;6.38;100.00;99808.19;5027800;28;20431;-63
2023/03/07 03:14:38;;;;;;;7.43;2.97;;;;;;;6.38;100.00;99807.38;5007499;28;20041;-66
2023/03/07 03:17:03;;;;;;;15.48;3.55;;;;;;;6.42;100.00;99814.19;5006668;28;20026;-62
2023/03/07 03:19:28;;;;;;;9.48;2.90;;;;;;;6.42;100.00;99799.34;5007989;28;20040;-61
2023/03/07 03:21:54;;;;;;;8.52;2.97;;;;;;;6.38;100.00;99799.50;5007897;28;20033;-65
2023/03/07 03:24:19;;;;;;;10.60;3.08;;;;;;;6.35;100.00;99808.28;5010094;28;20064;-61
2023/03/07 03:26:44;;;;;;;9.68;2.90;;;;;;;6.33;100.00;99804.91;5006081;28;20018;-62
2023/03/07 03:29:10;;;;;;;12.02;3.05;;;;;;;6.35;100.00;99802.22;5006730;28;20061;-61
2023/03/07 03:31:35;;;;;;;6.95;3.08;;;;;;;6.32;100.00;99801.41;5008781;28;20025;-64
2023/03/07 03:34:01;;;;;;;6.70;3.05;;;;;;;6.26;100.00;99806.00;5008226;28;20101;-61
2023/03/07 03:36:27;;;;;;;11.77;3.55;;;;;;;6.28;100.00;99788.47;5015701;28;20044;-61
2023/03/07 03:38:53;;;;;;;9.90;3.42;;;;;;;6.30;100.00;99792.75;5027637;28;20026;-64
2023/03/07 03:41:18;;;;;;;8.05;3.03;;;;;;;6.24;100.00;99790.34;5026621;28;20040;-62
2023/03/07 03:43:44;;;;;;;7.95;3.20;;;;;;;6.23;100.00;99793.84;5007036;28;20034;-62
2023/03/07 03:46:09;;;;;;;9.98;3.13;;;;;;;6.29;100.00;99793.66;5007361;28;20041;-63
2023/03/07 03:48:35;;;;;;;9.60;3.10;;;;;;;6.20;100.00;99793.94;5007942;28;20030;-61
2023/03/07 03:51:05;;;;;;;13.20;3.33;;;;;;;6.11;100.00;99802.13;5006933;28;20037;-62
2023/03/07 03:53:32;;;;;;;5.90;2.60;;;;;;;5.94;100.00;99803.47;5007701;28;20034;-62
2023/03/07 03:56:12;;;;;;;9.80;2.17;;;;;;;5.80;100.00;99807.38;5020037;28;20033;-62
2023/03/07 03:58:39;;;;;;;7.43;2.50;;;;;;;5.74;100.00;99796.22;5020997;28;20030;-62
2023/03/07 04:01:06;;;;;;;5.75;2.22;;;;;;;5.85;100.00;99793.28;5009519;28;20125;-62
2023/03/07 04:03:33;;;;;;;4.47;1.77;;;;;;;5.79;100.00;99797.81;5010939;28;20033;-62
2023/03/07 04:06:07;;;;;;;6.43;2.00;;;;;;;5.74;100.00;99784.03;5010779;28;20032;-62
2023/03/07 04:08:33;;;;;;;8.68;2.20;;;;;;;5.71;100.00;99780.63;5010439;28;20038;-64
2023/03/07 04:10:58;;;;;;;8.98;1.98;;;;;;;5.71;100.00;99784.13;5010383;28;20453;-63
2023/03/07 04:13:24;;;;;;;10.32;1.98;;;;;;;5.72;100.00;99780.59;5010197;28;20053;-62
2023/03/07 04:15:51;;;;;;;7.00;1.58;;;;;;;5.75;100.00;99780.50;5011121;28;20034;-63
2023/03/07 04:18:17;;;;;;;3.28;1.50;;;;;;;5.64;100.00;99782.59;5010822;28;20022;-61
2023/03/07 04:20:43;;;;;;;9.98;1.90;;;;;;;5.71;100.00;99776.28;5009768;28;20035;-61
2023/03/07 04:23:09;;;;;;;5.00;1.80;;;;;;;5.65;100.00;99774.72;5010531;28;20621;-63
2023/03/07 04:25:34;;;;;;;7.25;2.58;;;;;;;5.70;100.00;99777.19;5010634;28;20030;-62
2023/03/07 04:27:59;;;;;;;9.35;1.92;;;;;;;5.71;100.00;99772.81;5010191;28;20026;-62
2023/03/07 04:30:25;;;;;;;4.45;2.08;;;;;;;5.72;100.00;99770.13;5011001;28;20378;-60
2023/03/07 04:32:51;;;;;;;7.18;1.40;;;;;;;5.67;100.00;99767.69;5010857;28;20022;-61
2023/03/07 04:35:16;;;;;;;6.82;1.60;;;;;;;5.70;100.00;99771.97;5012382;28;20360;-60
2023/03/07 04:37:41;;;;;;;3.90;1.02;;;;;;;5.66;100.00;99770.34;5010228;28;20391;-61
2023/03/07 04:40:08;;;;;;;10.48;1.80;;;;;;;5.69;100.00;99773.72;5010158;28;20117;-61
2023/03/07 04:42:33;;;;;;;12.70;1.98;;;;;;;5.57;100.00;99767.09;5009648;28;20115;-61
2023/03/07 04:44:59;;;;;;;10.60;1.95;;;;;;;5.44;100.00;99761.41;5010693;28;20466;-60
2023/03/07 04:47:24;;;;;;;10.85;1.58;;;;;;;5.53;100.00;99760.25;5010974;28;20040;-60
2023/03/07 04:49:49;;;;;;;16.65;1.33;;;;;;;5.54;100.00;99756.75;5029470;28;20110;-62
2023/03/07 04:52:15;;;;;;;7.43;1.00;;;;;;;5.62;100.00;99763.47;5029424;28;20029;-61
2023/03/07 04:54:40;;;;;;;7.28;1.30;;;;;;;5.55;100.00;99757.59;5030095;28;20508;-61
2023/03/07 04:57:06;;;;;;;2.00;1.30;;;;;;;5.53;100.00;99755.03;5030717;28;20390;-63
2023/03/07 04:59:31;;;;;;;4.97;0.82;;;;;;;5.49;100.00;99750.81;5028483;28;20044;-61
2023/03/07 05:01:56;;;;;;;11.73;1.30;;;;;;;5.50;100.00;99749.03;5015074;28;20041;-59
2023/03/07 05:04:22;;;;;;;9.75;1.52;;;;;;;5.44;100.00;99752.69;5009952;28;20050;-59
2023/03/07 05:06:47;;;;;;;9.38;1.48;;;;;;;5.43;100.00;99751.00;5009214;28;20025;-59
2023/03/07 05:09:12;;;;;;;6.25;1.02;;;;;;;5.31;100.00;99754.81;5010061;28;20531;-58
2023/03/07 05:11:38;;;;;;;6.53;1.40;;;;;;;5.37;100.00;99757.25;5009968;28;20497;-59
2023/03/07 05:14:03;;;;;;;3.80;0.90;;;;;;;5.29;100.00;99760.09;5014716;28;20417;-60
2023/03/07 05:16:29;;;;;;;4.55;1.33;;;;;;;5.16;100.00;99771.78;5028522;28;20044;-60
2023/03/07 05:18:54;;;;;;;5.85;1.13;;;;;;;5.00;100.00;99772.22;5029117;28;20115;-64
2023/03/07 05:21:19;;;;;;;8.18;0.93;;;;;;;4.93;100.00;99782.00;5027645;28;20183;-59
2023/03/07 05:23:45;;;;;;;8.40;0.90;;;;;;;4.92;100.00;99779.41;5029349;28;20536;-59
2023/03/07 05:26:10;;;;;;;4.10;0.90;;;;;;;4.79;100.00;99779.75;5028445;28;20378;-60
2023/03/07 05:28:36;;;;;;;5.93;0.90;;;;;;;4.56;100.00;99782.97;5024176;28;20029;-61
2023/03/07 05:31:01;;;;;;;3.20;0.73;;;;;;;4.59;100.00;99787.25;5012593;28;20521;-60
2023/03/07 05:33:26;;;;;;;2.05;0.65;;;;;;;4.46;100.00;99787.59;5007897;28;20474;-59
2023/03/07 05:35:54;;;;;;;1.00;0.50;;;;;;;4.40;100.00;99787.75;5003708;28;20032;-59
2023/03/07 05:38:19;;;;;;;3.35;0.85;;;;;;;4.34;100.00;99787.88;5002290;28;20089;-60
2023/03/07 05:40:45;;;;;;;2.17;0.70;;;;;;;4.21;100.00;99776.91;5008093;28;20037;-60
2023/03/07 05:43:10;;;;;;;2.30;0.63;;;;;;;4.12;100.00;99785.81;5008352;28;20030;-59
2023/03/07 05:45:35;;;;;;;4.10;0.70;;;;;;;4.16;100.00;99790.06;5009677;28;20022;-59
2023/03/07 05:48:01;;;;;;;3.85;0.88;;;;;;;3.97;100.00;99787.03;5009432;28;20026;-56
2023/03/07 05:50:26;;;;;;;5.65;0.77;;;;;;;4.00;100.00;99793.00;5007455;28;20032;-58
2023/03/07 05:52:51;;;;;;;3.13;0.65;;;;;;;3.99;100.00;99799.13;5012122;28;20101;-59
2023/03/07 05:55:17;;;;;;;2.83;1.00;;;;;;;3.74;100.00;99798.84;5021458;28;20389;-58
2023/03/07 05:57:42;;;;;;;3.88;0.90;;;;;;;3.73;100.00;99800.56;5008806;28;20025;-60
2023/03/07 06:00:09;;;;;;;4.47;0.80;;;;;;;3.66;100.00;99796.41;5009380;28;20022;-60
2023/03/07 06:02:34;;;;;;;3.05;1.23;;;;;;;3.65;100.00;99799.91;5025691;28;20033;-60
2023/03/07 06:04:59;;;;;;;6.38;1.13;;;;;;;3.65;100.00;99799.91;5027219;28;20500;-58
2023/03/07 06:07:25;;;;;;;6.40;0.90;;;;;;;3.71;100.00;99786.75;5025895;28;20029;-55
2023/03/07 06:09:51;;;;;;;3.53;0.80;;;;;;;3.75;100.00;99787.50;5019910;28;20029;-60
2023/03/07 06:12:16;;;;;;;3.30;0.70;;;;;;;3.77;100.00;99796.16;5028036;28;20039;-60
2023/03/07 06:14:41;;;;;;;2.58;0.75;;;;;;;3.72;100.00;99796.25;5027916;28;20113;-57
2023/03/07 06:17:07;;;;;;;4.93;0.88;;;;;;;3.61;100.00;99787.84;5029211;28;20052;-61
2023/03/07 06:19:32;;;;;;;3.92;0.75;;;;;;;3.71;100.00;99794.56;5028055;28;20059;-59
2023/03/07 06:21:58;;;;;;;4.03;0.80;;;;;;;3.69;100.00;99798.94;5027521;28;20056;-59
2023/03/07 06:24:23;;;;;;;2.80;0.80;;;;;;;3.70;100.00;99798.03;5028179;28;20084;-61
2023/03/07 06:26:49;;;;;;;4.78;0.85;;;;;;;3.77;100.00;99801.38;5027743;28;20021;-57
2023/03/07 06:29:14;;;;;;;2.63;0.80;;;;;;;3.81;100.00;99809.97;5027338;28;20061;-60
2023/03/07 06:31:39;;;;;;;2.70;0.80;;;;;;;3.84;100.00;99802.06;5026943;28;20026;-59
2023/03/07 06:34:05;;;;;;;5.00;0.95;;;;;;;3.87;100.00;99802.00;5028199;28;20063;-57
2023/03/07 06:36:30;;;;;;;4.00;1.10;;;;;;;3.91;100.00;99791.47;5024892;28;20036;-57
2023/03/07 06:38:55;;;;;;;2.38;0.70;;;;;;;3.84;100.00;99802.94;5027323;28;20028;-58
2023/03/07 06:41:21;;;;;;;4.78;0.98;;;;;;;3.84;100.00;99802.94;5027346;28;20417;-60
2023/03/07 06:43:50;;;;;;;4.50;1.10;;;;;;;3.94;100.00;99795.75;5027851;28;20419;-59
2023/03/07 06:46:17;;;;;;;;;;;;;;;3.88;100.00;99806.31;5027657;28;20072;-57
2023/03/07 06:48:42;;;;;;;5.15;1.30;;;;;;;3.73;100.00;99803.19;5025336;28;19940;-60
2023/03/07 06:51:08;;;;;;;6.93;1.67;;;;;;;3.72;100.00;99798.88;5006974;28;20060;-58
2023/03/07 06:53:34;;;;;;;4.03;1.50;;;;;;;3.64;100.00;99795.56;5007160;28;20057;-61
2023/03/07 06:55:59;;;;;;;3.95;1.25;;;;;;;3.62;100.00;99802.56;5007939;28;20542;-58
2023/03/07 06:58:25;;;;;;;3.47;1.20;;;;;;;3.48;100.00;99801.13;5007593;28;20120;-59
2023/03/07 07:00:50;;;;;;;3.38;1.35;;;;;;;3.51;100.00;99803.66;5009505;28;20026;-58
2023/03/07 07:03:17;;;;;;;6.70;1.77;;;;;;;3.59;100.00;99800.03;5007274;28;20075;-58
2023/03/07 07:05:42;;;;;;;4.38;1.20;;;;;;;3.53;100.00;99801.84;5006582;28;20116;-58
2023/03/07 07:08:08;;;;;;;5.18;1.15;;;;;;;3.54;100.00;99803.59;5007687;28;20474;-55
2023/03/07 07:10:34;;;;;;;5.78;1.25;;;;;;;3.60;100.00;99801.72;5007635;28;20519;-56
2023/03/07 07:12:59;;;;;;;2.40;1.00;;;;;;;3.53;100.00;99801.03;5007785;28;20034;-59
2023/03/07 07:15:24;;;;;;;2.17;0.90;;;;;;;3.47;100.00;99808.97;5007528;28;20061;-59
2023/03/07 07:17:50;;;;;;;3.22;1.17;;;;;;;3.54;100.00;99802.72;5011160;28;20458;-57
2023/03/07 07:20:16;;;;;;;2.13;1.05;;;;;;;3.53;100.00;99806.22;5026483;28;20028;-65
2023/03/07 07:22:41;;;;;;;2.25;0.80;;;;;;;3.52;100.00;99807.97;5025835;28;20025;-58
2023/03/07 07:25:07;;;;;;;5.00;1.10;;;;;;;3.50;100.00;99807.16;5026475;28;20026;-61
2023/03/07 07:27:32;;;;;;;3.72;0.90;;;;;;;3.45;100.00;99805.53;5025674;28;20025;-59
2023/03/07 07:29:58;;;;;;;3.58;0.98;;;;;;;3.36;100.00;99809.19;5009612;28;20056;-59
2023/03/07 07:32:23;;;;;;;5.18;1.23;;;;;;;3.27;100.00;99818.91;4995827;28;20026;-57
2023/03/07 07:34:48;;;;;;;1.45;1.20;;;;;;;3.21;100.00;99818.16;5007286;28;20033;-60
2023/03/07 07:37:14;;;;;;;2.88;0.75;;;;;;;3.47;100.00;99827.19;5010462;28;20022;-60
2023/03/07 07:39:42;;;;;;;6.25;1.27;;;;;;;3.45;100.00;99822.00;5008310;28;20102;-61
2023/03/07 07:42:08;;;;;;;1.53;1.13;;;;;;;3.50;100.00;99824.53;5012337;28;20105;-57
2023/03/07 07:44:33;;;;;;;3.42;1.50;;;;;;;3.56;100.00;99827.00;5028140;28;20172;-60
2023/03/07 07:46:59;;;;;;;2.60;1.45;;;;;;;3.65;100.00;99825.94;5030913;28;20096;-59
2023/03/07 07:49:25;;;;;;;4.32;1.40;;;;;;;3.65;100.00;99831.16;5029999;28;20481;-57
2023/03/07 07:51:50;;;;;;;2.30;1.40;;;;;;;3.69;100.00;99832.81;5031148;28;20018;-59
2023/03/07 07:54:16;;;;;;;4.63;1.15;;;;;;;3.66;100.00;99836.34;5030715;28;20771;-57
2023/03/07 07:56:41;;;;;;;3.65;1.10;;;;;;;3.75;100.00;99843.09;5011306;28;20026;-60
2023/03/07 07:59:07;;;;;;;5.57;0.90;;;;;;;3.97;100.00;99841.78;5011484;28;20018;-56
2023/03/07 08:01:32;;;;;;;4.18;1.08;;;;;;;3.90;100.00;99828.88;5010186;28;20022;-61
2023/03/07 08:03:58;;;;;;;1.83;1.00;;;;;;;3.90;100.00;99838.44;5008436;28;20156;-61
2023/03/07 08:06:25;;;;;;;2.92;0.85;;;;;;;4.05;100.00;99834.63;5010737;28;20026;-56
2023/03/07 08:08:51;;;;;;;8.50;1.15;;;;;;;4.11;100.00;99838.84;5013483;28;20370;-57
2023/03/07 08:11:17;;;;;;;4.07;1.02;;;;;;;4.16;100.00;99831.78;5030467;28;20041;-61
2023/03/07 08:13:42;;;;;;;6.20;1.15;;;;;;;4.17;100.00;99836.09;5018875;28;20033;-58
2023/03/07 08:16:09;;;;;;;5.00;1.10;;;;;;;4.20;100.00;99837.75;4998909;28;20502;-58
2023/03/07 08:18:34;;;;;;;3.00;1.10;;;;;;;4.32;100.00;99840.09;5001553;28;20030;-58
2023/03/07 08:20:59;;;;;;;2.80;1.30;;;;;;;4.45;100.00;99835.41;4988442;28;20080;-60
2023/03/07 08:23:25;;;;;;;2.13;0.98;;;;;;;4.43;100.00;99829.41;5013574;28;20037;-57
2023/03/07 08:25:50;;;;;;;2.13;1.30;;;;;;;4.51;100.00;99824.84;5009381;28;20033;-60
2023/03/07 08:28:15;;;;;;;7.43;1.63;;;;;;;4.54;100.00;99822.16;5007963;28;20374;-59
2023/03/07 08:30:41;;;;;;;3.40;0.90;;;;;;;4.65;100.00;99824.50;5001114;28;20029;-58
2023/03/07 08:33:06;;;;;;;5.85;1.30;;;;;;;4.68;100.00;99827.03;5004349;28;20018;-59
2023/03/07 08:35:31;;;;;;;4.63;1.10;;;;;;;4.69;100.00;99822.66;5008375;28;20740;-57
2023/03/07 08:37:58;;;;;;;2.95;1.52;;;;;;;4.77;100.00;99818.09;5010458;28;20062;-59
2023/03/07 08:40:25;;;;;;;8.85;1.92;;;;;;;4.76;100.00;99816.38;5009419;28;20018;-58
2023/03/07 08:42:51;;;;;;;4.85;1.40;;;;;;;4.85;100.00;99817.88;5012089;28;20101;-63
2023/03/07 08:45:16;;;;;;;6.85;1.35;;;;;;;4.89;100.00;99827.34;5009862;28;20037;-59
2023/03/07 08:47:42;;;;;;;4.15;1.33;;;;;;;4.98;100.00;99826.25;5007149;28;20045;-59
2023/03/07 08:50:07;;;;;;;6.45;1.65;;;;;;;4.97;100.00;99819.28;5009617;28;20014;-57
2023/03/07 08:52:33;;;;;;;7.03;2.33;;;;;;;4.96;100.00;99828.03;5010591;28;20022;-58
2023/03/07 08:54:58;;;;;;;5.75;1.20;;;;;;;4.97;100.00;99829.75;5010222;28;20120;-59
2023/03/07 08:57:24;;;;;;;6.60;1.52;;;;;;;4.91;100.00;99825.53;5000518;28;20038;-58
2023/03/07 08:59:49;;;;;;;2.83;1.35;;;;;;;4.88;100.00;99832.63;4993953;28;20133;-58
2023/03/07 09:02:15;;;;;;;4.88;1.23;;;;;;;4.94;100.00;99824.63;4992157;28;20022;-58
2023/03/07 09:04:40;;;;;;;6.72;1.45;;;;;;;4.93;100.00;99821.16;5001603;28;20052;-59
2023/03/07 09:07:06;;;;;;;5.40;1.10;;;;;;;5.02;100.00;99825.25;5001086;28;20029;-58
2023/03/07 09:09:31;;;;;;;4.43;1.08;;;;;;;4.89;100.00;99826.50;5000430;28;20540;-56
2023/03/07 09:11:57;;;;;;;4.78;1.00;;;;;;;4.92;100.00;99826.41;4992708;28;20023;-58
2023/03/07 09:14:22;;;;;;;4.18;1.40;;;;;;;5.01;100.00;99823.56;4994937;28;20030;-59
2023/03/07 09:16:47;;;;;;;3.20;0.80;;;;;;;5.16;100.00;99835.34;4995174;28;20023;-57
2023/03/07 09:19:13;;;;;;;3.03;0.93;;;;;;;5.16;100.00;99829.25;4996882;28;20030;-57
2023/03/07 09:21:39;;;;;;;4.47;1.25;;;;;;;5.35;100.00;99828.72;4997785;28;20514;-60
2023/03/07 09:24:05;;;;;;;4.35;1.20;;;;;;;5.47;100.00;99832.75;5005835;28;20395;-57
2023/03/07 09:26:30;;;;;;;5.53;0.80;;;;;;;5.58;100.00;99828.06;4996820;28;20026;-57
2023/03/07 09:28:56;;;;;;;10.73;1.25;;;;;;;5.61;100.00;99835.81;4995102;28;20022;-64
2023/03/07 09:31:21;;;;;;;4.72;0.80;;;;;;;5.63;100.00;99836.63;4994817;28;20026;-59
2023/03/07 09:33:47;;;;;;;2.53;0.80;;;;;;;5.77;100.00;99828.38;4991211;28;20069;-58
2023/03/07 09:36:13;;;;;;;7.38;1.10;;;;;;;5.82;100.00;99826.47;5003572;28;20546;-59
2023/03/07 09:38:39;;;;;;;40.40;3.60;;;;;;;5.86;100.00;99834.22;4992337;28;20038;-63
2023/03/07 09:41:39;;;;;;;5.25;0.88;;;;;;;5.96;100.00;99832.19;4992391;28;20026;-59
2023/03/07 09:44:21;;;;;;;28.15;3.00;;;;;;;5.95;100.00;99828.72;4972255;28;20037;-59
2023/03/07 09:47:14;;;;;;;6.78;1.08;;;;;;;6.16;100.00;99828.97;4976749;28;20045;-60
2023/03/07 09:49:44;;;;;;;37.80;3.47;;;;;;;6.21;100.00;99824.47;4994149;28;20022;-60
2023/03/07 09:52:13;;;;;;;2.58;0.60;;;;;;;6.28;100.00;99825.97;4993676;28;20037;-59
2023/03/07 09:54:50;;;;;;;2.05;0.60;;;;;;;6.32;100.00;99827.56;4989777;28;20054;-62
2023/03/07 09:57:21;;;;;;;7.05;0.82;;;;;;;6.28;100.00;99831.22;4995391;28;20031;-61
2023/03/07 09:59:50;;;;;;;6.90;1.15;;;;;;;6.27;100.00;99833.88;5001080;28;20358;-62
2023/03/07 10:02:30;;;;;;;1.98;0.93;;;;;;;6.22;100.00;99834.00;4995057;28;20027;-59
2023/03/07 10:05:07;;;;;;;4.30;0.80;;;;;;;5.99;100.00;99851.25;4988339;28;20046;-62
2023/03/07 10:07:34;;;;;;;43.33;3.90;;;;;;;5.65;100.00;99847.03;4995638;28;20030;-59
2023/03/07 10:10:01;;;;;;;4.13;0.93;;;;;;;5.26;100.00;99848.13;4996742;28;20022;-61
2023/03/07 10:12:44;;;;;;;2.33;1.00;;;;;;;5.22;100.00;99847.38;4992940;28;20038;-60
2023/03/07 10:15:33;;;;;;;2.17;0.70;;;;;;;4.99;100.00;99848.84;4992840;28;20093;-60
2023/03/07 10:18:23;;;;;;;6.70;1.97;;;;;;;4.91;100.00;99850.81;4992768;28;20698;-60
2023/03/07 10:21:02;;;;;;;3.45;1.27;;;;;;;4.93;100.00;99854.22;5003107;28;20193;-59
2023/03/07 10:23:50;;;;;;;4.03;1.00;;;;;;;4.71;100.00;99840.88;5000724;28;20022;-60
2023/03/07 10:26:22;;;;;;;4.10;0.85;;;;;;;4.95;100.00;99852.44;4995149;28;20053;-62
2023/03/07 10:28:48;;;;;;;5.63;0.93;;;;;;;5.02;100.00;99848.75;4990881;28;20018;-60
2023/03/07 10:31:26;;;;;;;3.00;1.08;;;;;;;5.21;100.00;99848.25;4997670;28;20033;-58
2023/03/07 10:33:53;;;;;;;3.53;0.77;;;;;;;5.32;100.00;99855.78;5010090;28;20033;-59
2023/03/07 10:36:21;;;;;;;5.10;0.70;;;;;;;5.21;100.00;99858.69;4994036;28;20080;-60
2023/03/07 10:38:56;;;;;;;3.33;0.98;;;;;;;5.24;100.00;99853.38;4993565;28;20525;-62
2023/03/07 10:41:22;;;;;;;6.03;1.10;;;;;;;5.22;100.00;99857.81;4990555;28;20023;-59
2023/03/07 10:43:49;;;;;;;5.00;0.85;;;;;;;5.35;100.00;99852.22;5012125;28;20401;-63
2023/03/07 10:46:17;;;;;;;5.53;1.13;;;;;;;5.35;100.00;99853.09;4995732;28;20025;-62
2023/03/07 10:48:54;;;;;;;10.13;1.00;;;;;;;5.35;100.00;99857.47;5001198;28;20498;-61
2023/03/07 10:51:26;;;;;;;1.95;0.70;;;;;;;5.40;100.00;99860.81;4993673;28;20026;-60
2023/03/07 10:53:51;;;;;;;2.35;0.65;;;;;;;5.54;100.00;99860.44;5010582;28;20028;-63
2023/03/07 10:56:17;;;;;;;1.92;0.80;;;;;;;5.79;100.00;99863.19;5005798;28;20029;-59
2023/03/07 10:59:10;;;;;;;2.38;0.93;;;;;;;6.02;100.00;99855.53;5008496;28;20390;-60
2023/03/07 11:01:54;;;;;;;5.15;0.88;;;;;;;5.92;100.00;99861.03;5008547;28;20504;-59
2023/03/07 11:04:22;;;;;;;3.40;0.80;;;;;;;5.92;100.00;99862.78;5005776;28;20050;-61
2023/03/07 11:07:00;;;;;;;2.33;0.90;;;;;;;5.82;100.00;99859.63;5006888;28;20119;-63
2023/03/07 11:09:32;;;;;;;1.90;0.70;;;;;;;5.69;100.00;99869.59;5019639;28;20048;-58
2023/03/07 11:12:05;;;;;;;11.20;2.25;;;;;;;5.71;100.00;99866.91;5027407;28;20036;-61
2023/03/07 11:14:51;;;;;;;64.78;5.28;;;;;;;5.52;100.00;99865.69;5018313;28;20501;-59
2023/03/07 11:17:22;;;;;;;3.85;1.27;;;;;;;5.50;100.00;99866.63;5005521;28;20025;-59
2023/03/07 11:19:55;;;;;;;5.07;0.70;;;;;;;5.28;100.00;99862.88;5005879;28;20620;-62
2023/03/07 11:22:32;;;;;;;16.73;1.23;;;;;;;5.14;100.00;99871.06;5006994;28;20028;-60
2023/03/07 11:25:09;;;;;;;2.13;1.05;;;;;;;5.05;100.00;99869.56;5006458;28;20040;-61
2023/03/07 11:27:45;;;;;;;3.15;1.10;;;;;;;5.15;100.00;99856.28;5007315;28;20083;-61
2023/03/07 11:30:24;;;;;;;5.30;0.82;;;;;;;5.30;100.00;99850.63;4998156;28;20034;-60
2023/03/07 11:32:57;;;;;;;5.25;1.30;;;;;;;5.50;100.00;99857.03;5005713;28;20026;-65
2023/03/07 11:35:30;;;;;;;1.00;0.80;;;;;;;5.50;100.00;99867.50;5005304;28;20025;-61